Fortunia — V2OG3 — position and weather

sailwx.info

Track history (hours):
 
Tides and Currents Weather Stations Pressure Air Temp Water Temp Dewpoint Dewpoint Depression Visibility Wind Speed Wind Dir Waves Ship Positions

Fortunia

Last reported at 2014-Jul-22 14:33 UTC. Time now 2014-Jul-22 15:02 UTC.
Position N 36°47' E 003°07'.

Length 121 m; draft 6 m.

Type: Ship. MMSI: 304010638.

Date/timePositionNaut miles runAvg speedWind from/ knotsBaromVisibWave heightAir tempDewpointWater temp
2014-Jul-22 14:33N 36°47' E 003°07'0 0.0
2014-Jul-22 13:30N 36°47' E 003°07'0 0.0
2014-Jul-22 12:29N 36°47' E 003°07'0 0.0
2014-Jul-22 06:18N 36°47' E 003°07'0 0.0
2014-Jul-20 23:19N 36°47' E 003°07'0 0.0
2014-Jul-20 00:16N 36°47' E 003°07'0 0.0
2014-Jul-19 23:28N 36°47' E 003°07'0 0.0
2014-Jul-19 22:15N 36°47' E 003°07'0 0.0
2014-Jul-19 19:29N 36°47' E 003°07'0 0.0
2014-Jul-19 17:31N 36°47' E 003°07'0 0.0
2014-Jul-19 15:06N 36°47' E 003°07'0 0.0
2014-Jul-19 14:33N 36°47' E 003°07'0 0.0
2014-Jul-19 13:29N 36°47' E 003°07'2 2.2
2014-Jul-19 12:33N 36°49' E 003°07'1410.0
2014-Jul-19 11:10N 37°02' E 003°03'710.6
2014-Jul-19 10:33N 37°09' E 003°01'1110.8
2014-Jul-19 09:33N 37°19' E 002°57'1210.8
2014-Jul-19 08:28N 37°30' E 002°53'1010.7
2014-Jul-19 07:33N 37°40' E 002°50'1110.8
2014-Jul-19 06:33N 37°50' E 002°46'1110.7
2014-Jul-19 05:33N 38°00' E 002°42'1010.6
2014-Jul-19 04:33N 38°11' E 002°39'1110.6
2014-Jul-19 03:33N 38°21' E 002°35'1110.7
2014-Jul-19 02:33N 38°31' E 002°32'1010.5
2014-Jul-19 01:33N 38°41' E 002°28'1110.2
2014-Jul-19 00:31N 38°51' E 002°25'1010.2
2014-Jul-18 23:33N 39°01' E 002°21'1010.4
2014-Jul-18 22:33N 39°11' E 002°18'1010.3
2014-Jul-18 21:33N 39°21' E 002°14'10 9.9
2014-Jul-18 20:31N 39°31' E 002°11'1010.1
2014-Jul-18 19:33N 39°41' E 002°10'1110.8
2014-Jul-18 18:33N 39°51' E 002°10'1111.1
2014-Jul-18 17:33N 40°02' E 002°10'1111.2
2014-Jul-18 16:33N 40°14' E 002°10'1111.0
2014-Jul-18 15:33N 40°25' E 002°10'1111.2
2014-Jul-18 14:33N 40°36' E 002°11'1111.2
2014-Jul-18 13:33N 40°47' E 002°10'1111.1
2014-Jul-18 12:33N 40°58' E 002°10'1211.4
2014-Jul-18 11:32N 41°10' E 002°11'1010.6
2014-Jul-18 10:33N 41°20' E 002°10'1 1.2
2014-Jul-18 09:28N 41°21' E 002°10'0 0.0
2014-Jul-18 07:15N 41°21' E 002°10'0 0.0
2014-Jul-18 06:15N 41°21' E 002°10'0 0.0
2014-Jul-18 05:32N 41°21' E 002°10'0 0.0
2014-Jul-18 03:32N 41°21' E 002°10'3 2.8
2014-Jul-18 02:29N 41°19' E 002°09'0 0.1
2014-Jul-18 01:29N 41°19' E 002°09'0 0.0
2014-Jul-17 21:27N 41°19' E 002°09'0 0.0
2014-Jul-17 20:21N 41°19' E 002°09'0 0.0
2014-Jul-17 19:33N 41°19' E 002°09'2 2.2
2014-Jul-17 18:33N 41°18' E 002°12'0 0.0
2014-Jul-17 17:12N 41°18' E 002°12'0 0.0
2014-Jul-17 14:29N 41°18' E 002°12'0 0.0
2014-Jul-17 13:29N 41°18' E 002°12'0 0.0
2014-Jul-17 11:16N 41°18' E 002°12'0 0.0
2014-Jul-17 10:28N 41°18' E 002°12'0 0.1
2014-Jul-17 09:27N 41°18' E 002°12'0 0.1
2014-Jul-17 08:28N 41°18' E 002°12'0 0.0
2014-Jul-17 07:18N 41°18' E 002°12'3 3.5
2014-Jul-17 06:30N 41°15' E 002°11'1010.1
2014-Jul-17 05:33N 41°07' E 002°04'1010.4
2014-Jul-17 04:33N 40°58' E 001°58'1110.8
2014-Jul-17 03:29N 40°47' E 001°51'1110.7
2014-Jul-17 02:28N 40°38' E 001°45'1010.5
2014-Jul-17 01:30N 40°29' E 001°39'1010.4
2014-Jul-17 00:30N 40°19' E 001°33'1010.1
2014-Jul-16 23:34N 40°11' E 001°27'1110.6
2014-Jul-16 22:33N 40°01' E 001°20'1010.3
2014-Jul-16 21:33N 39°52' E 001°14'1110.5
2014-Jul-16 20:33N 39°43' E 001°08'2610.5
2014-Jul-16 18:03N 39°19' E 000°53'1911.1
2014-Jul-16 16:19N 39°02' E 000°41'1211.0
2014-Jul-16 15:11N 38°51' E 000°34'2011.0
2014-Jul-16 13:24N 38°34' E 000°21'2110.9
2014-Jul-16 11:27N 38°17' E 000°06'3010.3
2014-Jul-16 08:34N 37°52' W 000°15'121 4.6
2014-Jul-15 06:22N 37°01' E 002°03'1411.4
2014-Jul-15 05:09N 36°59' E 002°20'4 6.0
2014-Jul-15 04:31N 36°58' E 002°25'1110.8
2014-Jul-15 03:30N 36°56' E 002°38'1010.5
2014-Jul-15 02:33N 36°54' E 002°50'1110.9
2014-Jul-15 01:32N 36°51' E 003°04'5 1.6
2014-Jul-14 22:33N 36°46' E 003°04'0 0.0
2014-Jul-14 19:19N 36°46' E 003°04'0 0.0
2014-Jul-14 18:31N 36°46' E 003°04'0 0.0
2014-Jul-14 17:24N 36°46' E 003°04'0 0.0
2014-Jul-14 16:24N 36°46' E 003°04'0 0.0
2014-Jul-14 14:23N 36°46' E 003°04'0 0.0
2014-Jul-14 13:23N 36°46' E 003°04'0 0.0
2014-Jul-14 11:22N 36°46' E 003°04'0 0.0
2014-Jul-14 10:27N 36°46' E 003°04'0 0.0
2014-Jul-14 08:27N 36°46' E 003°04'0 0.0
2014-Jul-14 05:07N 36°46' E 003°04'0 0.0
2014-Jul-14 04:07N 36°46' E 003°04'0 0.0
2014-Jul-14 00:26N 36°46' E 003°04'0 0.0
2014-Jul-13 23:05N 36°46' E 003°04'0 0.0
2014-Jul-13 18:33N 36°46' E 003°04'0 0.0
2014-Jul-13 16:32N 36°46' E 003°04'0 0.0
2014-Jul-13 14:13N 36°46' E 003°04'0 0.0
2014-Jul-13 13:18N 36°46' E 003°04'0 0.0
2014-Jul-13 11:29N 36°46' E 003°04'0 0.0
2014-Jul-13 10:29N 36°46' E 003°04'0 0.0
2014-Jul-13 07:23N 36°46' E 003°04'10010.1
2014-Jul-12 21:32N 38°23' E 002°35'20 8.1
2014-Jul-12 19:07N 38°42' E 002°27'610.7
2014-Jul-12 18:33N 38°48' E 002°26'1110.8
2014-Jul-12 17:33N 38°58' E 002°22'1010.5
2014-Jul-12 16:34N 39°08' E 002°19'1010.5
2014-Jul-12 15:33N 39°18' E 002°15'1110.7
2014-Jul-12 14:33N 39°29' E 002°12'  
Track history (hours):
 
Tides and Currents Weather Stations Pressure Air Temp Water Temp Dewpoint Dewpoint Depression Visibility Wind Speed Wind Dir Waves Ship Positions

Fortunia

Last reported at 2014-Jul-22 14:33 UTC. Time now 2014-Jul-22 15:02 UTC.
Position N 36°47' E 003°07'.

Length 121 m; draft 6 m.

Type: Ship. MMSI: 304010638.

Date/timePositionNaut miles runAvg speedWind from/ knotsBaromVisibWave heightAir tempDewpointWater temp
2014-Jul-22 14:33N 36°47' E 003°07'0 0.0
2014-Jul-22 13:30N 36°47' E 003°07'0 0.0
2014-Jul-22 12:29N 36°47' E 003°07'0 0.0
2014-Jul-22 06:18N 36°47' E 003°07'0 0.0
2014-Jul-20 23:19N 36°47' E 003°07'0 0.0
2014-Jul-20 00:16N 36°47' E 003°07'0 0.0
2014-Jul-19 23:28N 36°47' E 003°07'0 0.0
2014-Jul-19 22:15N 36°47' E 003°07'0 0.0
2014-Jul-19 19:29N 36°47' E 003°07'0 0.0
2014-Jul-19 17:31N 36°47' E 003°07'0 0.0
2014-Jul-19 15:06N 36°47' E 003°07'0 0.0
2014-Jul-19 14:33N 36°47' E 003°07'0 0.0
2014-Jul-19 13:29N 36°47' E 003°07'2 2.2
2014-Jul-19 12:33N 36°49' E 003°07'1410.0
2014-Jul-19 11:10N 37°02' E 003°03'710.6
2014-Jul-19 10:33N 37°09' E 003°01'1110.8
2014-Jul-19 09:33N 37°19' E 002°57'1210.8
2014-Jul-19 08:28N 37°30' E 002°53'1010.7
2014-Jul-19 07:33N 37°40' E 002°50'1110.8
2014-Jul-19 06:33N 37°50' E 002°46'1110.7
2014-Jul-19 05:33N 38°00' E 002°42'1010.6
2014-Jul-19 04:33N 38°11' E 002°39'1110.6
2014-Jul-19 03:33N 38°21' E 002°35'1110.7
2014-Jul-19 02:33N 38°31' E 002°32'1010.5
2014-Jul-19 01:33N 38°41' E 002°28'1110.2
2014-Jul-19 00:31N 38°51' E 002°25'1010.2
2014-Jul-18 23:33N 39°01' E 002°21'1010.4
2014-Jul-18 22:33N 39°11' E 002°18'1010.3
2014-Jul-18 21:33N 39°21' E 002°14'10 9.9
2014-Jul-18 20:31N 39°31' E 002°11'1010.1
2014-Jul-18 19:33N 39°41' E 002°10'1110.8
2014-Jul-18 18:33N 39°51' E 002°10'1111.1
2014-Jul-18 17:33N 40°02' E 002°10'1111.2
2014-Jul-18 16:33N 40°14' E 002°10'1111.0
2014-Jul-18 15:33N 40°25' E 002°10'1111.2
2014-Jul-18 14:33N 40°36' E 002°11'1111.2
2014-Jul-18 13:33N 40°47' E 002°10'1111.1
2014-Jul-18 12:33N 40°58' E 002°10'1211.4
2014-Jul-18 11:32N 41°10' E 002°11'1010.6
2014-Jul-18 10:33N 41°20' E 002°10'1 1.2
2014-Jul-18 09:28N 41°21' E 002°10'0 0.0
2014-Jul-18 07:15N 41°21' E 002°10'0 0.0
2014-Jul-18 06:15N 41°21' E 002°10'0 0.0
2014-Jul-18 05:32N 41°21' E 002°10'0 0.0
2014-Jul-18 03:32N 41°21' E 002°10'3 2.8
2014-Jul-18 02:29N 41°19' E 002°09'0 0.1
2014-Jul-18 01:29N 41°19' E 002°09'0 0.0
2014-Jul-17 21:27N 41°19' E 002°09'0 0.0
2014-Jul-17 20:21N 41°19' E 002°09'0 0.0
2014-Jul-17 19:33N 41°19' E 002°09'2 2.2
2014-Jul-17 18:33N 41°18' E 002°12'0 0.0
2014-Jul-17 17:12N 41°18' E 002°12'0 0.0
2014-Jul-17 14:29N 41°18' E 002°12'0 0.0
2014-Jul-17 13:29N 41°18' E 002°12'0 0.0
2014-Jul-17 11:16N 41°18' E 002°12'0 0.0
2014-Jul-17 10:28N 41°18' E 002°12'0 0.1
2014-Jul-17 09:27N 41°18' E 002°12'0 0.1
2014-Jul-17 08:28N 41°18' E 002°12'0 0.0
2014-Jul-17 07:18N 41°18' E 002°12'3 3.5
2014-Jul-17 06:30N 41°15' E 002°11'1010.1
2014-Jul-17 05:33N 41°07' E 002°04'1010.4
2014-Jul-17 04:33N 40°58' E 001°58'1110.8
2014-Jul-17 03:29N 40°47' E 001°51'1110.7
2014-Jul-17 02:28N 40°38' E 001°45'1010.5
2014-Jul-17 01:30N 40°29' E 001°39'1010.4
2014-Jul-17 00:30N 40°19' E 001°33'1010.1
2014-Jul-16 23:34N 40°11' E 001°27'1110.6
2014-Jul-16 22:33N 40°01' E 001°20'1010.3
2014-Jul-16 21:33N 39°52' E 001°14'1110.5
2014-Jul-16 20:33N 39°43' E 001°08'2610.5
2014-Jul-16 18:03N 39°19' E 000°53'1911.1
2014-Jul-16 16:19N 39°02' E 000°41'1211.0
2014-Jul-16 15:11N 38°51' E 000°34'2011.0
2014-Jul-16 13:24N 38°34' E 000°21'2110.9
2014-Jul-16 11:27N 38°17' E 000°06'3010.3
2014-Jul-16 08:34N 37°52' W 000°15'121 4.6
2014-Jul-15 06:22N 37°01' E 002°03'1411.4
2014-Jul-15 05:09N 36°59' E 002°20'4 6.0
2014-Jul-15 04:31N 36°58' E 002°25'1110.8
2014-Jul-15 03:30N 36°56' E 002°38'1010.5
2014-Jul-15 02:33N 36°54' E 002°50'1110.9
2014-Jul-15 01:32N 36°51' E 003°04'5 1.6
2014-Jul-14 22:33N 36°46' E 003°04'0 0.0
2014-Jul-14 19:19N 36°46' E 003°04'0 0.0
2014-Jul-14 18:31N 36°46' E 003°04'0 0.0
2014-Jul-14 17:24N 36°46' E 003°04'0 0.0
2014-Jul-14 16:24N 36°46' E 003°04'0 0.0
2014-Jul-14 14:23N 36°46' E 003°04'0 0.0
2014-Jul-14 13:23N 36°46' E 003°04'0 0.0
2014-Jul-14 11:22N 36°46' E 003°04'0 0.0
2014-Jul-14 10:27N 36°46' E 003°04'0 0.0
2014-Jul-14 08:27N 36°46' E 003°04'0 0.0
2014-Jul-14 05:07N 36°46' E 003°04'0 0.0
2014-Jul-14 04:07N 36°46' E 003°04'0 0.0
2014-Jul-14 00:26N 36°46' E 003°04'0 0.0
2014-Jul-13 23:05N 36°46' E 003°04'0 0.0
2014-Jul-13 18:33N 36°46' E 003°04'0 0.0
2014-Jul-13 16:32N 36°46' E 003°04'0 0.0
2014-Jul-13 14:13N 36°46' E 003°04'0 0.0
2014-Jul-13 13:18N 36°46' E 003°04'0 0.0
2014-Jul-13 11:29N 36°46' E 003°04'0 0.0
2014-Jul-13 10:29N 36°46' E 003°04'0 0.0
2014-Jul-13 07:23N 36°46' E 003°04'10010.1
2014-Jul-12 21:32N 38°23' E 002°35'20 8.1
2014-Jul-12 19:07N 38°42' E 002°27'610.7
2014-Jul-12 18:33N 38°48' E 002°26'1110.8
2014-Jul-12 17:33N 38°58' E 002°22'1010.5
2014-Jul-12 16:34N 39°08' E 002°19'1010.5
2014-Jul-12 15:33N 39°18' E 002°15'1110.7
2014-Jul-12 14:33N 39°29' E 002°12'  

Dump ship's entire track history